Time;durP1;ratioP1;P1;durP2;ratioP2;P2;SDS_P1;SDS_P2;PMS_P1;PMS_P2;Temp;Humidity;BMP_temperature;BMP_pressure;BME280_temperature;BME280_humidity;BME280_pressure;Samples;Min_cycle;Max_cycle;Signal;HPM_P1;HPM_P2
2021/05/22 00:00:12;;;;;;;7.62;4.40;;;;;;;8.78;81.26;97678.89;1725124;80;21038;-73
2021/05/22 00:02:40;;;;;;;6.22;4.22;;;;;;;8.74;81.25;97679.44;1723969;83;21062;-73
2021/05/22 00:05:08;;;;;;;5.33;4.15;;;;;;;8.69;80.92;97683.51;1724013;83;21018;-73
2021/05/22 00:07:35;;;;;;;5.47;4.60;;;;;;;8.66;80.77;97673.05;1736553;82;21110;-72
2021/05/22 00:10:06;;;;;;;7.00;4.17;;;;;;;8.60;81.55;97687.75;1753826;82;21499;-73
2021/05/22 00:12:32;;;;;;;6.55;3.70;;;;;;;8.55;81.07;97682.57;1753148;81;21531;-73
2021/05/22 00:14:59;;;;;;;8.55;3.77;;;;;;;8.44;82.52;97684.60;1749085;82;21043;-73
2021/05/22 00:17:25;;;;;;;8.30;3.70;;;;;;;8.38;82.75;97683.45;1731445;80;21030;-73
2021/05/22 00:19:51;;;;;;;5.33;3.77;;;;;;;8.36;81.16;97679.96;1753102;82;21038;-73
2021/05/22 00:22:18;;;;;;;5.00;3.52;;;;;;;8.34;81.81;97675.19;1747757;80;21512;-73
2021/05/22 00:24:44;;;;;;;7.97;4.72;;;;;;;8.26;83.37;97668.78;1741646;82;21015;-73
2021/05/22 00:27:11;;;;;;;7.22;4.65;;;;;;;8.24;81.92;97673.22;1741059;82;21116;-73
2021/05/22 00:29:37;;;;;;;5.80;3.90;;;;;;;8.22;81.55;97675.89;1729205;80;21004;-73
2021/05/22 00:32:04;;;;;;;6.80;5.00;;;;;;;8.23;82.09;97676.77;1721591;83;21052;-73
2021/05/22 00:34:31;;;;;;;6.10;4.20;;;;;;;8.17;81.24;97679.98;1721748;83;21092;-73
2021/05/22 00:36:57;;;;;;;8.10;4.42;;;;;;;8.13;81.07;97677.44;1721759;83;21552;-73
2021/05/22 00:39:24;;;;;;;8.28;4.28;;;;;;;8.07;82.32;97681.12;1727668;80;21068;-73
2021/05/22 00:41:51;;;;;;;5.33;4.17;;;;;;;8.01;81.84;97677.31;1724763;80;21118;-73
2021/05/22 00:44:17;;;;;;;10.88;4.67;;;;;;;7.90;83.05;97674.93;1746953;82;21054;-73
2021/05/22 00:46:44;;;;;;;5.42;3.70;;;;;;;7.85;83.32;97676.81;1749223;82;21523;-73
2021/05/22 00:49:10;;;;;;;6.58;4.15;;;;;;;7.84;81.87;97680.36;1765254;80;21038;-73
2021/05/22 00:51:38;;;;;;;9.68;4.20;;;;;;;7.76;84.65;97677.88;1700373;83;21076;-73
2021/05/22 00:54:05;;;;;;;9.95;4.72;;;;;;;7.74;84.16;97682.33;1721704;83;20986;-73
2021/05/22 00:56:32;;;;;;;5.78;4.37;;;;;;;7.71;83.86;97674.48;1721542;83;21472;-73
2021/05/22 00:58:59;;;;;;;5.50;4.15;;;;;;;7.69;83.60;97673.22;1742247;80;21508;-73
2021/05/22 01:01:25;;;;;;;5.53;4.08;;;;;;;7.66;83.07;97674.59;1787697;80;21051;-73
2021/05/22 01:03:53;;;;;;;5.28;3.90;;;;;;;7.64;82.49;97678.58;1759224;80;21018;-72
2021/05/22 01:06:25;;;;;;;5.22;3.85;;;;;;;7.60;82.43;97669.00;1721129;82;21066;-73
2021/05/22 01:09:13;;;;;;;5.70;4.15;;;;;;;7.57;82.39;97666.89;1726143;80;21476;-73
2021/05/22 01:11:56;;;;;;;4.47;3.70;;;;;;;7.53;82.37;97664.78;1737226;82;21575;-73
2021/05/22 01:14:46;;;;;;;6.20;3.47;;;;;;;7.51;82.65;97658.22;1752007;80;21023;-73
2021/05/22 01:17:17;;;;;;;7.78;3.90;;;;;;;7.48;82.49;97654.32;1723338;83;21106;-73
2021/05/22 01:20:10;;;;;;;7.25;3.92;;;;;;;7.44;82.62;97652.69;1732965;83;21010;-73
2021/05/22 01:22:41;;;;;;;5.70;3.55;;;;;;;7.39;82.99;97651.45;1732903;83;21039;-72
2021/05/22 01:25:33;;;;;;;4.30;3.65;;;;;;;7.38;82.78;97657.62;1694696;83;21091;-73
2021/05/22 01:28:04;;;;;;;7.60;4.08;;;;;;;7.37;82.50;97649.75;1679653;85;21515;-73
2021/05/22 01:30:32;;;;;;;6.78;4.00;;;;;;;7.33;86.23;97646.32;1656460;85;21066;-73
2021/05/22 01:32:59;;;;;;;6.50;4.22;;;;;;;7.32;83.63;97654.26;1666175;85;21039;-73
2021/05/22 01:35:25;;;;;;;5.78;4.10;;;;;;;7.29;83.84;97654.31;1684318;85;21051;-74
2021/05/22 01:37:52;;;;;;;6.15;3.70;;;;;;;7.21;84.09;97643.94;1684417;85;21086;-73
2021/05/22 01:40:18;;;;;;;4.83;3.95;;;;;;;7.18;84.03;97646.19;1684582;85;21091;-73
2021/05/22 01:42:45;;;;;;;5.37;3.62;;;;;;;7.16;85.45;97653.28;1684438;85;21553;-73
2021/05/22 01:45:29;;;;;;;4.95;3.62;;;;;;;7.13;84.42;97644.98;1680791;85;21047;-72
2021/05/22 01:47:58;;;;;;;9.63;3.98;;;;;;;7.15;83.97;97649.35;1667735;85;21066;-73
2021/05/22 01:50:27;;;;;;;5.53;4.33;;;;;;;7.12;84.62;97637.98;1656953;86;21062;-73
2021/05/22 01:52:56;;;;;;;4.47;3.92;;;;;;;7.12;84.97;97633.16;1660445;85;21503;-72
2021/05/22 01:55:24;;;;;;;5.95;3.70;;;;;;;7.11;83.61;97625.69;1687606;85;21008;-73
2021/05/22 01:57:50;;;;;;;5.83;4.00;;;;;;;7.13;83.60;97626.98;1688437;85;21536;-73
2021/05/22 02:00:18;;;;;;;5.20;4.42;;;;;;;7.16;83.44;97623.41;1705438;84;21130;-73
2021/05/22 02:03:17;;;;;;;5.28;3.50;;;;;;;7.19;83.61;97635.22;1696417;83;21094;-73
2021/05/22 02:05:47;;;;;;;5.67;3.55;;;;;;;7.19;83.65;97635.22;1738282;82;21022;-73
2021/05/22 02:08:18;;;;;;;4.97;3.50;;;;;;;7.24;83.89;97638.17;1748266;82;21052;-73
2021/05/22 02:10:47;;;;;;;7.60;4.25;;;;;;;7.28;84.20;97635.02;1754402;82;21022;-73
2021/05/22 02:13:16;;;;;;;8.05;4.22;;;;;;;7.28;84.68;97628.42;1754501;82;21046;-73
2021/05/22 02:15:56;;;;;;;7.70;4.90;;;;;;;7.30;84.65;97630.56;1740536;81;21039;-73
2021/05/22 02:18:24;;;;;;;7.58;4.00;;;;;;;7.34;84.69;97636.63;1738876;82;21552;-73
2021/05/22 02:20:55;;;;;;;6.37;4.12;;;;;;;7.38;84.89;97630.39;1708791;82;21556;-74
2021/05/22 02:23:24;;;;;;;10.43;3.62;;;;;;;7.38;84.94;97640.93;1739054;82;21039;-74
2021/05/22 02:25:57;;;;;;;6.03;3.05;;;;;;;7.42;85.11;97642.60;1739585;81;21479;-74
2021/05/22 02:28:33;;;;;;;7.20;3.55;;;;;;;7.47;84.99;97647.79;1743185;82;21066;-74
2021/05/22 02:31:01;;;;;;;4.40;3.55;;;;;;;7.50;84.93;97636.72;1746183;82;21061;-73
2021/05/22 02:33:30;;;;;;;6.15;3.72;;;;;;;7.50;85.00;97634.52;1706038;82;21027;-74
2021/05/22 02:35:58;;;;;;;4.17;3.60;;;;;;;7.55;84.99;97644.50;1749201;82;21504;-73
2021/05/22 02:38:33;;;;;;;4.85;3.60;;;;;;;7.55;84.68;97645.83;1749415;82;21508;-73
2021/05/22 02:41:05;;;;;;;5.53;3.98;;;;;;;7.55;84.26;97650.25;1749604;82;21035;-73
2021/05/22 02:43:34;;;;;;;6.50;3.83;;;;;;;7.47;84.09;97653.91;1739593;82;21031;-73
2021/05/22 02:46:02;;;;;;;7.92;3.52;;;;;;;7.44;83.97;97652.69;1737143;82;21031;-73
2021/05/22 02:48:33;;;;;;;5.75;3.72;;;;;;;7.42;83.87;97656.25;1728104;82;21043;-73
2021/05/22 02:51:02;;;;;;;7.30;3.62;;;;;;;7.38;83.78;97648.84;1749464;82;21058;-73
2021/05/22 02:53:31;;;;;;;7.45;3.77;;;;;;;7.34;83.77;97655.08;1716188;82;21022;-73
2021/05/22 02:55:57;;;;;;;8.78;4.35;;;;;;;7.26;83.89;97662.72;1720101;82;21046;-73
2021/05/22 02:58:25;;;;;;;5.37;3.65;;;;;;;7.22;85.28;97660.16;1749284;82;21015;-73
2021/05/22 03:00:52;;;;;;;6.05;3.77;;;;;;;7.21;84.24;97657.12;1749363;82;21039;-73
2021/05/22 03:03:19;;;;;;;6.87;3.90;;;;;;;7.22;84.78;97657.53;1737538;82;20999;-73
2021/05/22 03:05:46;;;;;;;5.33;3.98;;;;;;;7.22;84.11;97657.09;1719564;81;21034;-73
2021/05/22 03:08:13;;;;;;;5.15;3.52;;;;;;;7.20;84.09;97649.68;1714971;82;21137;-73
2021/05/22 03:10:40;;;;;;;5.17;3.25;;;;;;;7.20;84.01;97647.05;1741753;82;21047;-74
2021/05/22 03:13:07;;;;;;;6.58;4.15;;;;;;;7.16;84.20;97640.53;1748212;82;21015;-74
2021/05/22 03:15:34;;;;;;;8.60;4.45;;;;;;;7.14;84.51;97645.84;1737329;82;21559;-73
2021/05/22 03:18:00;;;;;;;5.20;4.00;;;;;;;7.13;84.48;97645.42;1718109;83;21059;-73
2021/05/22 03:20:27;;;;;;;8.70;4.40;;;;;;;7.12;84.40;97653.80;1718124;83;21011;-73
2021/05/22 03:22:53;;;;;;;4.85;3.72;;;;;;;7.12;84.20;97653.80;1720113;82;21054;-73
2021/05/22 03:25:20;;;;;;;6.05;3.98;;;;;;;7.14;84.30;97651.11;1719577;83;21467;-74
2021/05/22 03:27:47;;;;;;;9.38;4.50;;;;;;;7.12;84.44;97649.84;1719547;82;21034;-74
2021/05/22 03:30:14;;;;;;;7.47;4.37;;;;;;;7.15;84.45;97643.64;1719690;83;21034;-73
2021/05/22 03:32:41;;;;;;;8.65;4.17;;;;;;;7.18;84.40;97646.19;1745658;81;21081;-73
2021/05/22 03:35:09;;;;;;;6.10;3.90;;;;;;;7.23;84.63;97651.38;1743730;82;21039;-73
2021/05/22 03:37:35;;;;;;;5.03;3.92;;;;;;;7.26;84.46;97664.03;1724990;82;21591;-73
2021/05/22 03:40:05;;;;;;;4.75;3.75;;;;;;;7.32;85.32;97667.44;1727009;82;21100;-73
2021/05/22 03:42:32;;;;;;;5.05;3.75;;;;;;;7.37;84.28;97676.11;1757322;81;21428;-73
2021/05/22 03:44:58;;;;;;;6.90;3.60;;;;;;;7.40;84.21;97676.91;1762450;81;21031;-73
2021/05/22 03:47:25;;;;;;;9.65;4.30;;;;;;;7.46;83.97;97680.31;1762552;81;21046;-74
2021/05/22 03:49:51;;;;;;;10.70;4.30;;;;;;;7.51;83.89;97679.31;1762280;81;21198;-73
2021/05/22 03:52:18;;;;;;;8.15;3.35;;;;;;;7.60;84.71;97686.61;1747198;81;21089;-73
2021/05/22 03:54:46;;;;;;;5.42;4.08;;;;;;;7.64;84.27;97683.01;1762286;81;21026;-74
2021/05/22 03:57:13;;;;;;;4.55;3.83;;;;;;;7.69;83.94;97672.34;1762457;81;21078;-73
2021/05/22 03:59:39;;;;;;;9.43;4.17;;;;;;;7.74;83.89;97677.94;1736572;81;21003;-73
2021/05/22 04:02:06;;;;;;;11.28;5.03;;;;;;;7.81;84.53;97689.22;1745229;81;20995;-73
2021/05/22 04:04:32;;;;;;;6.08;3.72;;;;;;;7.83;83.25;97682.12;1762521;81;20987;-73
2021/05/22 04:06:59;;;;;;;8.75;4.15;;;;;;;7.88;83.06;97682.00;1758934;81;21523;-74
2021/05/22 04:09:25;;;;;;;6.62;3.75;;;;;;;7.92;83.00;97680.59;1762198;81;21144;-73
2021/05/22 04:11:51;;;;;;;5.47;3.92;;;;;;;7.98;82.77;97681.34;1762476;81;21038;-73
2021/05/22 04:14:17;;;;;;;5.58;3.70;;;;;;;8.02;82.59;97681.69;1762418;81;21014;-73
2021/05/22 04:16:44;;;;;;;4.67;3.77;;;;;;;8.09;82.63;97685.05;1755412;81;21547;-73
2021/05/22 04:19:10;;;;;;;4.62;3.58;;;;;;;8.13;82.42;97682.28;1749488;82;21049;-73
2021/05/22 04:21:37;;;;;;;8.25;3.62;;;;;;;8.22;82.09;97691.73;1749444;82;21084;-73
2021/05/22 04:24:05;;;;;;;6.70;3.30;;;;;;;8.27;82.19;97695.12;1741996;82;21015;-73
2021/05/22 04:26:32;;;;;;;6.75;4.17;;;;;;;8.37;81.87;97698.41;1754887;81;21471;-73
2021/05/22 04:28:58;;;;;;;4.80;3.80;;;;;;;8.47;81.79;97695.54;1717090;83;21111;-74
2021/05/22 04:31:24;;;;;;;6.20;4.00;;;;;;;8.57;81.68;97694.42;1720334;82;21051;-74
2021/05/22 04:33:51;;;;;;;9.60;4.12;;;;;;;8.69;81.63;97694.08;1743425;82;21047;-74
2021/05/22 04:36:18;;;;;;;6.22;3.95;;;;;;;8.79;80.88;97697.35;1740631;81;20987;-74
2021/05/22 04:38:44;;;;;;;6.78;3.90;;;;;;;8.77;80.73;97691.26;1733447;83;21031;-73
2021/05/22 04:41:11;;;;;;;6.92;4.08;;;;;;;8.85;80.50;97693.69;1733508;82;21679;-73
2021/05/22 04:43:40;;;;;;;6.40;4.05;;;;;;;8.94;80.30;97695.20;1733737;83;21011;-74
2021/05/22 04:46:07;;;;;;;4.80;3.92;;;;;;;9.01;79.96;97690.61;1729419;81;21090;-73
2021/05/22 04:48:33;;;;;;;7.42;4.20;;;;;;;9.07;79.90;97687.34;1715205;82;21080;-74
2021/05/22 04:51:00;;;;;;;7.45;3.92;;;;;;;9.19;79.80;97682.61;1741236;82;21489;-73
2021/05/22 04:53:26;;;;;;;7.17;3.80;;;;;;;9.31;79.61;97682.70;1720301;82;21031;-73
2021/05/22 04:55:53;;;;;;;10.18;5.20;;;;;;;9.41;79.50;97684.16;1729184;81;21114;-73
2021/05/22 04:58:19;;;;;;;9.35;4.65;;;;;;;9.53;78.71;97694.83;1774119;81;21500;-73
2021/05/22 05:00:46;;;;;;;11.30;4.42;;;;;;;9.63;78.68;97694.08;1774287;81;21053;-73
2021/05/22 05:03:12;;;;;;;7.53;4.30;;;;;;;9.73;78.72;97693.35;1774288;81;21042;-73
2021/05/22 05:05:39;;;;;;;5.50;4.42;;;;;;;9.85;78.36;97693.43;1707550;84;21086;-73
2021/05/22 05:08:06;;;;;;;9.18;5.08;;;;;;;9.92;77.97;97690.98;1677419;84;21025;-73
2021/05/22 05:10:32;;;;;;;5.85;5.10;;;;;;;10.02;77.87;97689.77;1662538;86;21539;-73
2021/05/22 05:13:01;;;;;;;6.58;4.87;;;;;;;10.12;77.21;97685.05;1665712;84;21060;-73
2021/05/22 05:15:27;;;;;;;8.55;5.12;;;;;;;10.21;76.66;97695.80;1670854;85;21518;-74
2021/05/22 05:17:54;;;;;;;7.08;4.95;;;;;;;10.28;76.86;97690.72;1693376;84;21098;-74
2021/05/22 05:20:20;;;;;;;6.60;5.72;;;;;;;10.40;76.83;97701.81;1739289;81;21675;-73
2021/05/22 05:22:50;;;;;;;10.48;5.90;;;;;;;10.50;76.39;97701.09;1733739;83;21059;-74
2021/05/22 05:25:16;;;;;;;11.18;7.10;;;;;;;10.59;76.24;97695.44;1733627;82;21051;-74
2021/05/22 05:27:42;;;;;;;10.75;6.87;;;;;;;10.72;76.19;97696.36;1716991;82;21007;-74
2021/05/22 05:30:10;;;;;;;11.10;7.00;;;;;;;10.82;76.02;97701.73;1713882;82;21542;-74
2021/05/22 05:32:37;;;;;;;8.88;6.22;;;;;;;10.93;75.90;97710.64;1714029;84;21507;-74
2021/05/22 05:35:04;;;;;;;13.08;7.35;;;;;;;10.99;75.49;97711.74;1713784;83;21043;-74
2021/05/22 05:37:31;;;;;;;11.12;6.87;;;;;;;11.08;75.09;97707.88;1734533;81;21164;-71
2021/05/22 05:39:57;;;;;;;12.00;7.53;;;;;;;11.20;75.28;97721.16;1730660;81;21007;-72
2021/05/22 05:42:24;;;;;;;13.72;8.90;;;;;;;11.32;75.11;97723.38;1735848;81;21113;-72
2021/05/22 05:44:51;;;;;;;15.40;9.73;;;;;;;11.43;74.90;97719.45;1743660;82;21019;-72
2021/05/22 05:47:18;;;;;;;15.38;9.70;;;;;;;11.50;74.60;97719.61;1743431;82;21043;-73
2021/05/22 05:49:44;;;;;;;12.23;8.45;;;;;;;11.55;75.12;97716.32;1769711;81;21091;-71
2021/05/22 05:52:10;;;;;;;11.33;7.40;;;;;;;11.70;74.92;97712.23;1774511;81;21542;-71
2021/05/22 05:54:37;;;;;;;13.43;8.18;;;;;;;11.82;74.53;97711.34;1774409;81;21098;-71
2021/05/22 05:57:05;;;;;;;11.33;8.83;;;;;;;11.91;74.16;97713.63;1774352;81;21114;-72
2021/05/22 05:59:31;;;;;;;12.95;7.50;;;;;;;12.03;74.09;97716.27;1743541;81;21090;-72
2021/05/22 06:01:58;;;;;;;11.22;9.00;;;;;;;12.16;73.88;97717.14;1733689;82;21059;-71
2021/05/22 06:04:24;;;;;;;20.20;9.05;;;;;;;12.26;72.57;97718.02;1731587;82;21051;-71
2021/05/22 06:06:50;;;;;;;10.58;7.47;;;;;;;12.35;72.58;97710.60;1737291;82;21074;-71
2021/05/22 06:09:17;;;;;;;9.18;6.95;;;;;;;12.43;72.80;97711.61;1752336;81;21047;-71
2021/05/22 06:11:44;;;;;;;11.90;6.12;;;;;;;12.53;72.53;97716.48;1689351;84;21055;-71
2021/05/22 06:14:16;;;;;;;8.95;6.08;;;;;;;12.63;71.95;97722.74;1743429;82;21031;-71
2021/05/22 06:16:39;;;;;;;7.83;6.33;;;;;;;12.72;71.89;97718.37;1742726;82;21107;-71
2021/05/22 06:19:06;;;;;;;9.00;6.35;;;;;;;12.78;71.96;97715.44;1760201;81;21031;-72
2021/05/22 06:21:37;;;;;;;8.38;6.42;;;;;;;12.88;70.53;97712.38;1774065;81;21015;-72
2021/05/22 06:24:01;;;;;;;6.40;5.80;;;;;;;12.93;71.35;97705.94;1773966;81;21523;-72
2021/05/22 06:26:27;;;;;;;9.60;7.25;;;;;;;13.02;70.99;97708.65;1708528;84;21055;-71
2021/05/22 06:28:54;;;;;;;10.58;7.22;;;;;;;13.11;71.12;97709.16;1733899;81;21204;-71
2021/05/22 06:31:20;;;;;;;14.23;7.25;;;;;;;13.13;70.71;97705.52;1745839;82;21035;-71
2021/05/22 06:33:47;;;;;;;9.48;6.65;;;;;;;13.17;70.78;97712.89;1733555;82;21054;-71
2021/05/22 06:36:14;;;;;;;8.90;6.50;;;;;;;13.24;70.86;97713.48;1753823;82;21054;-70
2021/05/22 06:38:40;;;;;;;10.18;7.30;;;;;;;13.29;70.09;97713.66;1717900;82;21030;-71
2021/05/22 06:41:07;;;;;;;10.45;6.67;;;;;;;13.24;70.52;97709.01;1724112;83;21054;-71
2021/05/22 06:43:33;;;;;;;12.60;7.50;;;;;;;13.20;70.65;97703.42;1724018;83;21050;-72
2021/05/22 06:46:10;;;;;;;11.28;7.15;;;;;;;13.30;71.02;97708.75;1724048;83;21129;-72
2021/05/22 06:48:28;;;;;;;11.35;7.33;;;;;;;13.43;70.66;97694.87;1721298;83;21066;-72
2021/05/22 06:50:58;;;;;;;9.18;7.17;;;;;;;13.55;70.77;97695.67;1724903;80;21562;-71
2021/05/22 06:53:25;;;;;;;11.97;7.55;;;;;;;13.68;70.71;97699.08;1729701;82;21046;-71
2021/05/22 06:55:51;;;;;;;9.98;6.90;;;;;;;13.77;70.46;97698.65;1737845;81;21155;-71
2021/05/22 06:58:18;;;;;;;8.63;6.45;;;;;;;13.89;70.29;97698.53;1738199;82;21066;-71
2021/05/22 07:00:46;;;;;;;11.68;7.45;;;;;;;13.99;70.00;97688.28;1753894;82;21490;-71
2021/05/22 07:03:14;;;;;;;8.98;6.60;;;;;;;14.10;70.47;97691.31;1758090;80;21365;-72
2021/05/22 07:05:41;;;;;;;12.85;6.60;;;;;;;14.26;70.03;97690.55;1753846;82;21468;-71
2021/05/22 07:08:09;;;;;;;10.13;6.00;;;;;;;14.43;69.65;97687.50;1753943;82;21038;-71
2021/05/22 07:10:36;;;;;;;8.50;6.37;;;;;;;14.61;69.98;97689.23;1753807;82;21132;-72
2021/05/22 07:13:04;;;;;;;10.20;6.50;;;;;;;14.77;68.33;97689.81;1771344;80;21026;-72
2021/05/22 07:15:31;;;;;;;9.20;6.10;;;;;;;14.90;68.35;97696.70;1782318;80;21066;-72
2021/05/22 07:17:58;;;;;;;10.28;5.40;;;;;;;15.01;67.47;97694.81;1760368;80;21019;-72
2021/05/22 07:20:25;;;;;;;9.68;5.78;;;;;;;15.16;68.12;97678.47;1737906;80;21011;-72
2021/05/22 07:22:51;;;;;;;6.15;4.67;;;;;;;15.28;68.13;97675.13;1732989;82;21070;-72
2021/05/22 07:25:18;;;;;;;7.12;4.65;;;;;;;15.44;67.44;97660.94;1724085;83;21519;-73
2021/05/22 07:27:47;;;;;;;7.55;4.70;;;;;;;15.56;65.21;97666.95;1723974;83;21030;-72
2021/05/22 07:30:16;;;;;;;7.42;3.92;;;;;;;15.70;66.48;97666.66;1725564;83;21090;-73
2021/05/22 07:32:45;;;;;;;5.45;3.72;;;;;;;15.86;65.84;97661.79;1779862;80;21046;-72
2021/05/22 07:35:13;;;;;;;7.22;3.92;;;;;;;16.02;65.41;97664.49;1783311;80;21499;-72
2021/05/22 07:37:42;;;;;;;9.05;3.65;;;;;;;16.16;64.52;97667.23;1706799;84;21058;-73
2021/05/22 07:40:11;;;;;;;7.00;3.80;;;;;;;16.26;60.95;97664.00;1736048;83;21483;-73
2021/05/22 07:42:48;;;;;;;5.28;3.08;;;;;;;16.38;63.31;97660.63;1703581;84;21098;-73
2021/05/22 07:45:12;;;;;;;7.20;3.40;;;;;;;16.47;62.56;97666.77;1685495;83;21572;-72
2021/05/22 07:47:40;;;;;;;6.72;3.52;;;;;;;16.61;61.75;97662.42;1689800;84;21089;-73
2021/05/22 07:50:09;;;;;;;4.33;3.25;;;;;;;16.73;61.47;97654.13;1703915;84;21504;-73
2021/05/22 07:52:36;;;;;;;5.25;3.70;;;;;;;16.76;59.23;97653.47;1695837;84;21575;-73
2021/05/22 07:55:03;;;;;;;8.88;3.10;;;;;;;16.84;60.26;97644.09;1674059;86;21066;-74
2021/05/22 07:57:33;;;;;;;6.37;2.90;;;;;;;16.96;60.86;97647.84;1674224;86;21134;-71
2021/05/22 07:59:58;;;;;;;6.83;3.60;;;;;;;17.13;60.54;97638.80;1675774;84;21473;-73
2021/05/22 08:02:25;;;;;;;5.50;3.42;;;;;;;17.29;58.15;97632.01;1675541;86;21130;-73
2021/05/22 08:04:53;;;;;;;5.35;3.22;;;;;;;17.43;58.11;97635.14;1670578;86;21087;-73
2021/05/22 08:07:20;;;;;;;3.98;3.15;;;;;;;17.58;59.02;97636.00;1675578;86;21083;-74
2021/05/22 08:09:46;;;;;;;5.20;3.27;;;;;;;17.72;57.12;97635.09;1686863;84;21093;-74
2021/05/22 08:12:12;;;;;;;6.45;3.30;;;;;;;17.83;56.97;97641.58;1685508;83;21058;-74
2021/05/22 08:14:39;;;;;;;6.10;3.30;;;;;;;17.92;55.70;97633.80;1723684;83;21154;-71
2021/05/22 08:17:06;;;;;;;6.90;3.12;;;;;;;18.06;57.02;97642.27;1723667;83;21623;-72
2021/05/22 08:19:33;;;;;;;5.92;2.90;;;;;;;18.16;55.78;97634.99;1723742;83;21527;-73
2021/05/22 08:21:59;;;;;;;5.33;3.45;;;;;;;18.13;54.59;97633.84;1723714;83;21028;-73
2021/05/22 08:24:26;;;;;;;6.25;3.60;;;;;;;18.19;55.49;97628.09;1706891;84;21073;-73
2021/05/22 08:26:52;;;;;;;4.50;3.95;;;;;;;18.23;54.15;97632.77;1722556;83;21010;-72
2021/05/22 08:29:19;;;;;;;6.30;3.80;;;;;;;18.26;54.92;97624.02;1720717;83;21050;-73
2021/05/22 08:31:46;;;;;;;5.78;3.65;;;;;;;18.31;54.53;97623.73;1687671;85;21076;-72
2021/05/22 08:34:12;;;;;;;10.63;4.60;;;;;;;18.36;55.08;97626.09;1745317;81;21039;-71
2021/05/22 08:36:41;;;;;;;10.40;4.90;;;;;;;18.47;54.08;97615.48;1728748;82;21059;-71
2021/05/22 08:39:08;;;;;;;10.50;6.08;;;;;;;18.52;53.84;97619.20;1753507;82;21034;-72
2021/05/22 08:41:37;;;;;;;5.70;3.70;;;;;;;18.60;52.94;97614.16;1736206;81;21035;-71
2021/05/22 08:44:04;;;;;;;6.08;3.95;;;;;;;18.70;52.78;97615.27;1716661;83;21126;-72
2021/05/22 08:46:32;;;;;;;5.30;3.05;;;;;;;18.81;53.13;97619.86;1723774;83;21509;-72
2021/05/22 08:48:58;;;;;;;4.42;3.00;;;;;;;18.97;53.36;97615.63;1739979;80;21437;-72
2021/05/22 08:51:25;;;;;;;7.50;3.08;;;;;;;19.12;50.93;97612.86;1782811;80;21054;-73
2021/05/22 08:53:52;;;;;;;6.25;3.10;;;;;;;19.19;51.97;97612.78;1782896;80;21038;-72
2021/05/22 08:56:19;;;;;;;6.28;2.70;;;;;;;19.41;51.89;97607.70;1779979;80;21515;-72
2021/05/22 08:58:46;;;;;;;7.97;3.77;;;;;;;19.51;50.68;97604.72;1757872;80;21062;-72
2021/05/22 09:01:12;;;;;;;6.75;2.83;;;;;;;19.61;49.79;97599.55;1750226;82;21511;-73
2021/05/22 09:03:39;;;;;;;4.67;2.72;;;;;;;19.77;49.41;97593.91;1752729;81;21015;-73
2021/05/22 09:06:06;;;;;;;5.45;2.80;;;;;;;19.86;49.76;97600.43;1757620;80;21101;-73
2021/05/22 09:08:33;;;;;;;4.50;2.40;;;;;;;20.02;50.80;97593.45;1782987;80;21476;-73
2021/05/22 09:11:04;;;;;;;5.37;2.02;;;;;;;20.19;49.73;97586.80;1782891;80;21061;-73
2021/05/22 09:13:33;;;;;;;2.00;1.80;;;;;;;20.31;46.73;97582.33;1783089;80;21086;-73
2021/05/22 09:16:08;;;;;;;6.00;1.90;;;;;;;20.46;43.99;97590.20;1778263;80;21405;-73
2021/05/22 09:18:38;;;;;;;5.47;2.08;;;;;;;20.61;46.58;97586.32;1741871;82;21479;-73
2021/05/22 09:21:09;;;;;;;5.60;1.90;;;;;;;20.73;45.00;97583.16;1741820;82;21027;-73
2021/05/22 09:23:39;;;;;;;6.53;2.05;;;;;;;20.76;42.90;97573.48;1739229;82;21011;-73
2021/05/22 09:26:13;;;;;;;8.78;2.17;;;;;;;20.84;45.00;97569.70;1745568;80;21019;-73
2021/05/22 09:28:46;;;;;;;5.20;2.35;;;;;;;20.98;45.67;97570.48;1745177;82;21086;-73
2021/05/22 09:31:19;;;;;;;4.62;2.20;;;;;;;21.10;45.54;97570.00;1729917;82;21089;-73
2021/05/22 09:33:47;;;;;;;4.03;2.30;;;;;;;21.15;44.99;97570.97;1732403;83;21050;-73
2021/05/22 09:36:21;;;;;;;3.65;1.90;;;;;;;21.20;44.64;97572.80;1742737;80;21555;-73
2021/05/22 09:38:54;;;;;;;2.33;1.77;;;;;;;21.23;42.73;97564.48;1785438;80;21033;-74
2021/05/22 09:41:33;;;;;;;2.95;1.90;;;;;;;21.29;41.28;97573.92;1785600;80;21003;-73
2021/05/22 09:44:16;;;;;;;3.05;1.82;;;;;;;21.40;43.20;97576.59;1786301;80;21069;-73
2021/05/22 09:46:54;;;;;;;2.27;1.80;;;;;;;21.49;40.95;97574.50;1773936;80;21026;-72
2021/05/22 09:49:29;;;;;;;2.62;1.30;;;;;;;21.52;42.07;97577.91;1760989;81;21039;-72
2021/05/22 09:52:15;;;;;;;2.87;1.25;;;;;;;21.61;35.35;97578.52;1748337;81;21050;-72
2021/05/22 09:54:58;;;;;;;4.70;1.20;;;;;;;21.67;32.59;97575.31;1761876;81;21090;-72
2021/05/22 09:57:36;;;;;;;1.82;1.10;;;;;;;21.76;30.04;97571.05;1762801;80;21051;-73
2021/05/22 10:00:17;;;;;;;1.72;1.15;;;;;;;21.75;28.91;97571.53;1761036;81;21058;-73
2021/05/22 10:02:48;;;;;;;4.20;1.27;;;;;;;21.78;29.61;97569.55;1762550;81;21061;-71
2021/05/22 10:05:32;;;;;;;2.70;1.20;;;;;;;21.69;28.55;97579.23;1761579;80;21019;-71
2021/05/22 10:08:03;;;;;;;1.15;1.02;;;;;;;21.77;28.15;97568.71;1762469;81;21022;-71
2021/05/22 10:10:45;;;;;;;2.47;1.45;;;;;;;21.95;29.83;97564.09;1762541;81;21046;-72
2021/05/22 10:13:15;;;;;;;2.40;1.30;;;;;;;22.13;29.30;97564.42;1755058;80;21066;-72
2021/05/22 10:15:43;;;;;;;3.77;1.40;;;;;;;22.19;29.79;97552.23;1756381;81;21085;-71
2021/05/22 10:18:12;;;;;;;3.62;1.30;;;;;;;22.30;29.50;97553.55;1762449;81;21535;-72
2021/05/22 10:20:39;;;;;;;4.30;1.10;;;;;;;22.35;29.98;97549.09;1762482;81;21026;-72
2021/05/22 10:23:06;;;;;;;1.95;1.50;;;;;;;22.46;28.31;97545.48;1769962;80;21018;-72
2021/05/22 10:25:34;;;;;;;3.27;1.40;;;;;;;22.48;29.14;97542.14;1786127;80;21066;-73
2021/05/22 10:28:00;;;;;;;2.77;1.90;;;;;;;22.48;30.13;97543.00;1786085;80;21173;-72
2021/05/22 10:30:27;;;;;;;4.20;1.55;;;;;;;22.44;30.43;97542.03;1726936;82;21042;-72
2021/05/22 10:33:06;;;;;;;3.25;1.70;;;;;;;22.35;31.48;97535.59;1723139;83;21117;-72
2021/05/22 10:35:50;;;;;;;1.87;1.50;;;;;;;22.47;31.78;97528.28;1734190;82;21483;-72
2021/05/22 10:38:41;;;;;;;2.45;1.67;;;;;;;22.58;29.39;97524.70;1742414;82;21065;-72
2021/05/22 10:41:12;;;;;;;2.72;1.60;;;;;;;22.96;30.37;97518.27;1727168;83;21078;-72
2021/05/22 10:43:43;;;;;;;1.77;1.50;;;;;;;23.49;28.43;97523.92;1723851;83;21527;-72
2021/05/22 10:46:11;;;;;;;3.05;1.75;;;;;;;23.81;29.81;97522.84;1741149;82;21057;-72
2021/05/22 10:48:46;;;;;;;2.72;1.40;;;;;;;24.87;25.93;97514.92;1752015;82;21049;-72
2021/05/22 10:51:32;;;;;;;3.87;1.98;;;;;;;25.64;27.01;97506.55;1751966;81;21026;-72
2021/05/22 10:54:01;;;;;;;2.10;1.50;;;;;;;26.41;26.53;97511.16;1751898;82;21023;-72
2021/05/22 10:56:28;;;;;;;2.47;1.37;;;;;;;27.15;25.30;97491.71;1731494;82;21460;-72
2021/05/22 10:59:09;;;;;;;2.83;1.60;;;;;;;28.18;23.99;97484.30;1703565;83;21508;-72
2021/05/22 11:01:44;;;;;;;3.33;1.50;;;;;;;28.81;22.59;97482.34;1724140;82;21045;-72
2021/05/22 11:04:17;;;;;;;2.85;1.55;;;;;;;28.81;22.59;97482.34;1717625;82;21472;-73
2021/05/22 11:06:57;;;;;;;1.50;1.40;;;;;;;29.26;22.83;97477.77;1746442;82;21499;-73
2021/05/22 11:09:35;;;;;;;2.40;1.20;;;;;;;29.66;21.89;97482.36;1724206;82;21051;-72
2021/05/22 11:12:14;;;;;;;2.00;1.70;;;;;;;29.85;20.61;97476.42;1724020;82;21507;-72
2021/05/22 11:14:52;;;;;;;2.52;1.60;;;;;;;30.23;22.47;97473.44;1724117;82;21019;-72
2021/05/22 11:17:26;;;;;;;1.50;1.22;;;;;;;30.75;22.50;97469.52;1694570;84;21154;-72
2021/05/22 11:20:09;;;;;;;1.92;1.60;;;;;;;31.04;20.63;97465.09;1695144;84;21133;-74
2021/05/22 11:22:52;;;;;;;4.95;1.62;;;;;;;30.58;18.51;97475.66;1695279;84;21114;-73
2021/05/22 11:25:20;;;;;;;4.97;1.50;;;;;;;30.76;20.08;97476.18;1706234;82;21022;-72
2021/05/22 11:27:54;;;;;;;2.30;1.40;;;;;;;30.56;20.66;97482.70;1746426;82;21046;-72
2021/05/22 11:30:25;;;;;;;2.27;1.70;;;;;;;30.73;19.68;97472.98;1715859;82;21464;-74
2021/05/22 11:32:58;;;;;;;1.80;1.50;;;;;;;30.94;20.22;97465.39;1724423;81;21086;-74
2021/05/22 11:35:30;;;;;;;1.75;1.50;;;;;;;30.80;18.77;97463.83;1742284;81;21034;-83
2021/05/22 11:38:14;;;;;;;2.98;1.62;;;;;;;31.16;19.96;97465.45;1747898;81;21003;-77
2021/05/22 11:40:44;;;;;;;;;;;;;;;31.36;19.32;97464.38;1749405;81;21469;-77
2021/05/22 11:43:28;;;;;;;3.50;1.50;;;;;;;31.60;19.54;97459.59;1744726;81;20241;-78
2021/05/22 11:46:10;;;;;;;2.25;1.72;;;;;;;31.35;19.17;97462.69;1736780;82;21027;-79